createdAt,value
2018-06-10T00:01:26.254Z,61.80
2018-06-10T00:03:54.607Z,62.40
2018-06-10T00:06:22.977Z,62.50
2018-06-10T00:08:51.362Z,62.40
2018-06-10T00:11:19.725Z,62.30
2018-06-10T00:13:48.056Z,62.20
2018-06-10T00:16:16.410Z,62.00
2018-06-10T00:18:44.719Z,62.20
2018-06-10T00:21:19.753Z,62.20
2018-06-10T00:23:48.251Z,62.10
2018-06-10T00:26:16.661Z,61.90
2018-06-10T00:28:50.312Z,61.90
2018-06-10T00:31:18.653Z,62.00
2018-06-10T00:33:47.008Z,62.10
2018-06-10T00:36:15.337Z,62.10
2018-06-10T00:38:43.674Z,62.20
2018-06-10T00:41:12.036Z,62.20
2018-06-10T00:43:40.354Z,62.10
2018-06-10T00:46:08.791Z,62.00
2018-06-10T00:48:37.123Z,62.10
2018-06-10T00:51:05.492Z,62.20
2018-06-10T00:56:12.151Z,62.40
2018-06-10T00:58:40.524Z,62.70
2018-06-10T01:01:09.082Z,63.30
2018-06-10T01:03:37.400Z,63.50
2018-06-10T01:06:05.752Z,63.50
2018-06-10T01:08:34.100Z,63.60
2018-06-10T01:11:03.256Z,63.80
2018-06-10T01:13:31.817Z,64.20
2018-06-10T01:16:00.275Z,64.30
2018-06-10T01:18:28.603Z,64.70
2018-06-10T01:20:57.382Z,65.00
2018-06-10T01:23:26.954Z,65.50
2018-06-10T01:25:55.332Z,65.50
2018-06-10T01:28:23.747Z,65.60
2018-06-10T01:30:52.071Z,65.70
2018-06-10T01:33:20.463Z,65.60
2018-06-10T01:35:50.639Z,65.50
2018-06-10T01:38:19.052Z,65.40
2018-06-10T01:43:17.115Z,65.10
2018-06-10T01:45:45.755Z,64.80
2018-06-10T01:48:14.115Z,65.10
2018-06-10T01:50:42.431Z,65.30
2018-06-10T01:53:10.810Z,65.50
2018-06-10T01:55:39.143Z,66.00
2018-06-10T01:58:07.551Z,66.10
2018-06-10T02:00:35.874Z,66.30
2018-06-10T02:03:04.281Z,66.60
2018-06-10T02:05:33.617Z,66.90
2018-06-10T02:08:02.796Z,67.40
2018-06-10T02:10:32.023Z,67.70
2018-06-10T02:13:00.759Z,68.30
2018-06-10T02:15:29.089Z,68.50
2018-06-10T02:17:58.196Z,68.60
2018-06-10T02:20:26.522Z,68.70
2018-06-10T02:22:56.062Z,68.60
2018-06-10T02:25:25.300Z,69.00
2018-06-10T02:27:53.727Z,70.00
2018-06-10T02:30:28.677Z,69.20
2018-06-10T02:32:57.789Z,69.20
2018-06-10T02:35:26.308Z,69.40
2018-06-10T03:55:26.093Z,70.30
2018-06-10T03:57:54.469Z,71.10
2018-06-10T04:05:19.231Z,71.20
2018-06-10T04:07:47.619Z,71.70
2018-06-10T04:10:15.993Z,71.60
2018-06-10T04:12:44.476Z,71.70
2018-06-10T04:15:12.862Z,71.70
2018-06-10T04:17:41.301Z,71.50
2018-06-10T04:20:09.710Z,71.10
2018-06-10T04:22:38.174Z,70.90
2018-06-10T04:25:06.545Z,70.80
2018-06-10T04:27:41.522Z,70.90
2018-06-10T04:30:09.920Z,71.30
2018-06-10T04:32:38.319Z,71.50
2018-06-10T04:35:06.699Z,72.50
2018-06-10T04:37:35.080Z,71.50
2018-06-10T04:40:03.481Z,71.60
2018-06-10T04:42:31.873Z,71.40
2018-06-10T04:45:01.030Z,71.30
2018-06-10T04:47:29.456Z,71.30
2018-06-10T04:49:58.120Z,71.00
2018-06-10T04:52:26.580Z,70.80
2018-06-10T04:54:54.964Z,70.50
2018-06-10T04:57:23.335Z,70.20
2018-06-10T04:59:51.731Z,69.90
2018-06-10T05:02:20.213Z,69.60
2018-06-10T05:04:48.622Z,69.20
2018-06-10T05:07:17.021Z,68.70
2018-06-10T05:09:45.456Z,68.00
2018-06-10T05:12:13.846Z,67.80
2018-06-10T05:14:42.240Z,67.50
2018-06-10T05:17:10.683Z,66.90
2018-06-10T05:19:39.185Z,66.90
2018-06-10T05:22:07.571Z,66.80
2018-06-10T05:24:35.943Z,66.60
2018-06-10T05:27:04.339Z,66.60
2018-06-10T05:29:32.786Z,66.50
2018-06-10T05:32:01.142Z,66.40
2018-06-10T05:34:29.548Z,66.00
2018-06-10T05:39:32.461Z,66.50
2018-06-10T05:42:00.862Z,66.20
2018-06-10T05:44:29.266Z,66.70
2018-06-10T05:46:57.680Z,67.00
2018-06-10T05:49:26.040Z,66.90
2018-06-10T05:51:54.438Z,66.70
2018-06-10T05:54:22.797Z,66.30
2018-06-10T05:56:51.244Z,66.00
2018-06-10T05:59:19.669Z,66.20
2018-06-10T06:01:48.092Z,66.00
2018-06-10T06:04:16.481Z,66.20
2018-06-10T06:06:44.896Z,65.90
2018-06-10T06:09:13.321Z,65.30
2018-06-10T06:11:41.732Z,65.00
2018-06-10T06:14:10.532Z,64.00
2018-06-10T06:16:38.931Z,63.70
2018-06-10T06:19:07.721Z,63.10
2018-06-10T06:21:36.076Z,62.60
2018-06-10T06:24:04.444Z,62.30
2018-06-10T06:26:32.838Z,61.70
2018-06-10T06:29:01.252Z,60.80
2018-06-10T06:31:29.617Z,60.40
2018-06-10T06:33:58.074Z,59.90
2018-06-10T06:36:26.466Z,59.60
2018-06-10T06:38:54.854Z,59.30
2018-06-10T06:41:23.222Z,58.80
2018-06-10T06:43:51.591Z,59.00
2018-06-10T06:46:20.050Z,58.80
2018-06-10T06:48:48.422Z,59.10
2018-06-10T06:51:16.832Z,58.90
2018-06-10T06:53:45.237Z,58.20
2018-06-10T06:56:13.655Z,58.50
2018-06-10T06:58:42.074Z,57.80
2018-06-10T07:01:10.445Z,57.70
2018-06-10T07:03:38.818Z,57.20
2018-06-10T07:06:07.194Z,56.50
2018-06-10T07:08:35.547Z,56.40
2018-06-10T07:11:03.949Z,56.60
2018-06-10T07:13:32.318Z,56.20
2018-06-10T07:16:00.725Z,55.10
2018-06-10T07:18:29.125Z,55.10
2018-06-10T07:20:57.510Z,54.80
2018-06-10T07:23:26.052Z,54.30
2018-06-10T07:25:54.536Z,54.00
2018-06-10T07:28:22.996Z,54.20
2018-06-10T07:30:51.443Z,54.10
2018-06-10T07:33:19.864Z,53.10
2018-06-10T07:35:48.262Z,52.50
2018-06-10T07:38:16.668Z,51.70
2018-06-10T07:40:45.044Z,51.80
2018-06-10T07:43:13.486Z,51.30
2018-06-10T07:45:41.819Z,51.20
2018-06-10T07:48:10.195Z,50.10
2018-06-10T07:50:38.558Z,50.30
2018-06-10T07:53:07.159Z,49.50
2018-06-10T07:55:35.633Z,49.40
2018-06-10T07:58:04.238Z,48.90
2018-06-10T08:00:32.595Z,49.00
2018-06-10T08:03:01.966Z,47.40
2018-06-10T08:05:30.489Z,47.70
2018-06-10T08:07:58.831Z,47.50
2018-06-10T08:10:27.184Z,46.80
2018-06-10T08:12:55.541Z,46.80
2018-06-10T08:15:23.880Z,46.20
2018-06-10T08:17:52.307Z,45.70
2018-06-10T08:20:20.711Z,45.40
2018-06-10T08:22:49.119Z,46.00
2018-06-10T08:25:17.555Z,45.20
2018-06-10T08:27:45.916Z,44.40
2018-06-10T08:30:14.418Z,44.00
2018-06-10T08:32:42.983Z,43.60
2018-06-10T08:35:11.334Z,43.50
2018-06-10T08:37:39.702Z,43.10
2018-06-10T08:40:08.076Z,42.90
2018-06-10T08:42:36.449Z,42.70
2018-06-10T08:45:05.285Z,42.40
2018-06-10T08:47:33.648Z,42.10
2018-06-10T08:50:02.033Z,41.60
2018-06-10T08:52:30.452Z,42.70
2018-06-10T08:54:58.856Z,42.10
2018-06-10T08:57:27.218Z,41.60
2018-06-10T08:59:55.608Z,41.70
2018-06-10T09:02:24.022Z,41.30
2018-06-10T09:04:52.465Z,41.60
2018-06-10T09:07:22.337Z,41.60
2018-06-10T09:09:50.751Z,42.10
2018-06-10T09:12:19.240Z,42.70
2018-06-10T09:14:47.813Z,42.90
2018-06-10T09:17:16.237Z,42.70
2018-06-10T09:19:44.705Z,43.10
2018-06-10T09:22:13.284Z,42.80
2018-06-10T09:24:41.859Z,42.90
2018-06-10T09:27:10.337Z,43.10
2018-06-10T09:29:38.760Z,42.30
2018-06-10T09:32:07.197Z,42.00
2018-06-10T09:34:35.696Z,41.60
2018-06-10T09:37:04.161Z,41.10
2018-06-10T09:39:32.564Z,40.30
2018-06-10T09:42:00.997Z,39.60
2018-06-10T09:44:29.499Z,39.10
2018-06-10T09:46:57.948Z,39.30
2018-06-10T09:49:26.402Z,39.10
2018-06-10T09:51:54.800Z,38.50
2018-06-10T09:54:23.246Z,38.50
2018-06-10T09:56:51.718Z,38.30
2018-06-10T09:59:20.263Z,37.40
2018-06-10T10:01:48.623Z,36.80
2018-06-10T10:04:17.035Z,36.80
2018-06-10T10:06:45.378Z,36.40
2018-06-10T10:09:13.805Z,36.80
2018-06-10T10:11:42.160Z,37.00
2018-06-10T10:14:10.519Z,37.70
2018-06-10T10:16:39.147Z,38.00
2018-06-10T10:19:07.577Z,37.50
2018-06-10T10:21:35.970Z,37.50
2018-06-10T10:24:04.354Z,37.70
2018-06-10T10:26:32.763Z,36.80
2018-06-10T10:29:01.112Z,36.50
2018-06-10T10:31:29.526Z,36.50
2018-06-10T10:33:57.926Z,36.30
2018-06-10T10:36:26.328Z,36.50
2018-06-10T10:38:54.713Z,36.30
2018-06-10T10:41:23.234Z,35.90
2018-06-10T10:43:51.698Z,35.70
2018-06-10T10:48:48.410Z,35.50
2018-06-10T10:51:16.877Z,36.00
2018-06-10T10:53:45.335Z,35.10
2018-06-10T10:58:42.139Z,35.70
2018-06-10T11:01:10.566Z,36.20
2018-06-10T11:03:39.033Z,36.30
2018-06-10T11:06:07.666Z,36.40
2018-06-10T11:08:36.080Z,37.20
2018-06-10T11:11:04.595Z,38.20
2018-06-10T11:13:33.095Z,37.90
2018-06-10T11:16:01.574Z,37.40
2018-06-10T11:18:30.040Z,36.60
2018-06-10T11:20:58.472Z,37.60
2018-06-10T11:23:26.880Z,35.90
2018-06-10T11:25:55.308Z,34.90
2018-06-10T11:30:58.328Z,35.10
2018-06-10T11:33:26.836Z,35.90
2018-06-10T11:35:55.292Z,36.20
2018-06-10T11:38:23.715Z,35.70
2018-06-10T11:40:52.282Z,36.60
2018-06-10T11:43:20.717Z,35.40
2018-06-10T11:45:49.222Z,37.60
2018-06-10T11:48:17.695Z,36.90
2018-06-10T11:50:46.069Z,35.60
2018-06-10T11:53:14.471Z,35.30
2018-06-10T11:55:42.847Z,35.10
2018-06-10T11:58:11.304Z,35.70
2018-06-10T12:00:39.743Z,36.90
2018-06-10T12:03:08.175Z,37.00
2018-06-10T12:05:36.688Z,38.00
2018-06-10T12:08:05.200Z,37.50
2018-06-10T12:10:33.762Z,38.60
2018-06-10T12:13:02.338Z,39.50
2018-06-10T12:15:30.756Z,41.40
2018-06-10T12:17:59.267Z,42.90
2018-06-10T12:20:27.695Z,44.20
2018-06-10T12:22:56.120Z,45.10
2018-06-10T12:25:24.565Z,46.00
2018-06-10T12:27:53.063Z,48.50
2018-06-10T12:30:21.569Z,51.00
2018-06-10T12:32:50.116Z,54.60
2018-06-10T12:35:18.683Z,56.70
2018-06-10T12:37:47.097Z,58.30
2018-06-10T12:40:15.583Z,58.20
2018-06-10T12:42:43.951Z,58.60
2018-06-10T12:45:12.573Z,59.20
2018-06-10T12:47:41.577Z,59.90
2018-06-10T12:50:10.258Z,58.30
2018-06-10T12:52:38.880Z,59.30
2018-06-10T12:55:07.503Z,59.50
2018-06-10T12:57:36.142Z,60.20
2018-06-10T13:00:04.805Z,60.80
2018-06-10T13:02:33.660Z,60.70
2018-06-10T13:05:02.239Z,60.90
2018-06-10T13:07:30.634Z,60.70
2018-06-10T13:09:59.056Z,60.60
2018-06-10T13:12:27.487Z,61.30
2018-06-10T13:14:56.095Z,59.50
2018-06-10T13:17:27.853Z,60.00
2018-06-10T13:19:56.251Z,59.50
2018-06-10T13:22:24.699Z,59.10
2018-06-10T13:24:53.105Z,58.80
2018-06-10T13:27:21.518Z,59.70
2018-06-10T13:29:50.044Z,59.60
2018-06-10T13:32:18.449Z,58.60
2018-06-10T13:34:46.936Z,57.80
2018-06-10T13:37:15.361Z,58.10
2018-06-10T13:39:43.761Z,57.80
2018-06-10T13:42:12.172Z,57.00
2018-06-10T13:44:40.651Z,56.60
2018-06-10T13:47:09.229Z,56.50
2018-06-10T13:49:37.666Z,56.20
2018-06-10T13:52:06.330Z,56.10
2018-06-10T13:54:34.753Z,56.00
2018-06-10T13:57:03.178Z,56.00
2018-06-10T13:59:31.605Z,55.90
2018-06-10T14:02:00.116Z,56.40
2018-06-10T14:04:28.565Z,57.40
2018-06-10T14:06:57.142Z,57.50
2018-06-10T14:09:25.691Z,57.30
2018-06-10T14:11:54.136Z,56.30
2018-06-10T14:14:22.744Z,56.50
2018-06-10T14:16:51.264Z,56.50
2018-06-10T14:19:19.717Z,56.20
2018-06-10T14:21:48.126Z,55.90
2018-06-10T14:24:16.642Z,56.30
2018-06-10T14:26:45.809Z,56.40
2018-06-10T14:34:10.598Z,55.90
2018-06-10T14:36:39.062Z,55.10
2018-06-10T14:39:08.808Z,55.20
2018-06-10T14:41:37.205Z,56.10
2018-06-10T14:44:05.758Z,56.60
2018-06-10T14:46:34.256Z,56.90
2018-06-10T14:49:02.726Z,57.10
2018-06-10T14:51:31.241Z,57.70
2018-06-10T14:56:27.835Z,60.50
2018-06-10T14:58:56.288Z,61.90
2018-06-10T15:01:24.760Z,62.60
2018-06-10T15:06:21.310Z,64.10
2018-06-10T15:08:49.743Z,64.30
2018-06-10T15:11:18.151Z,64.40
2018-06-10T15:13:50.197Z,65.70
2018-06-10T15:16:18.623Z,66.20
2018-06-10T15:18:47.099Z,66.70
2018-06-10T15:21:15.502Z,67.10
2018-06-10T15:23:43.935Z,67.50
2018-06-10T15:26:12.368Z,67.40
2018-06-10T15:28:40.771Z,67.70
2018-06-10T15:31:09.168Z,68.50
2018-06-10T15:33:37.579Z,68.80
2018-06-10T15:36:06.104Z,69.00
2018-06-10T15:38:34.621Z,69.10
2018-06-10T15:41:03.135Z,69.50
2018-06-10T15:45:59.818Z,69.10
2018-06-10T15:48:28.587Z,69.00
2018-06-10T15:50:57.084Z,68.20
2018-06-10T15:53:25.500Z,67.50
2018-06-10T15:55:53.967Z,67.00
2018-06-10T15:58:22.384Z,67.30
2018-06-10T16:00:50.862Z,67.90
2018-06-10T16:03:19.284Z,67.10
2018-06-10T16:05:47.710Z,67.00
2018-06-10T16:08:16.200Z,66.90
2018-06-10T16:10:44.694Z,67.30
2018-06-10T16:13:13.091Z,67.30
2018-06-10T16:15:41.478Z,66.30
2018-06-10T16:18:09.986Z,66.30
2018-06-10T16:20:38.381Z,65.70
2018-06-10T16:23:06.962Z,65.80
2018-06-10T16:25:35.365Z,65.40
2018-06-10T16:28:03.769Z,65.10
2018-06-10T16:30:32.223Z,65.00
2018-06-10T16:33:00.650Z,65.10
2018-06-10T16:35:29.033Z,65.40
2018-06-10T16:37:57.462Z,64.90
2018-06-10T16:40:25.918Z,65.10
2018-06-10T16:42:54.289Z,65.50
2018-06-10T16:45:22.700Z,66.00
2018-06-10T16:47:51.122Z,65.80
2018-06-10T16:50:19.516Z,66.50
2018-06-10T16:52:47.974Z,66.50
2018-06-10T16:55:16.932Z,66.80
2018-06-10T16:57:45.368Z,66.80
2018-06-10T17:00:13.775Z,67.40
2018-06-10T17:02:42.277Z,67.20
2018-06-10T17:05:10.675Z,67.70
2018-06-10T17:07:39.094Z,67.70
2018-06-10T17:10:07.491Z,67.90
2018-06-10T17:12:35.958Z,68.30
2018-06-10T17:15:04.384Z,68.50
2018-06-10T17:17:32.749Z,68.40
2018-06-10T17:20:01.158Z,68.70
2018-06-10T17:22:29.567Z,69.30
2018-06-10T17:27:26.152Z,68.90
2018-06-10T17:29:54.597Z,69.60
2018-06-10T17:32:22.995Z,68.80
2018-06-10T17:34:51.385Z,69.40
2018-06-10T17:37:19.837Z,69.80
2018-06-10T17:39:48.297Z,69.20
2018-06-10T17:42:16.766Z,69.70
2018-06-10T17:44:45.156Z,69.70
2018-06-10T17:47:13.532Z,69.60
2018-06-10T17:49:41.970Z,68.60
2018-06-10T17:52:10.336Z,69.60
2018-06-10T17:54:38.776Z,69.20
2018-06-10T17:57:07.141Z,69.50
2018-06-10T17:59:35.556Z,69.60
2018-06-10T18:02:04.064Z,69.30
2018-06-10T18:04:32.420Z,70.20
2018-06-10T18:07:00.780Z,70.20
2018-06-10T18:09:29.182Z,70.80
2018-06-10T18:11:57.564Z,72.20
2018-06-10T18:14:26.005Z,73.20
2018-06-10T18:16:54.440Z,73.90
2018-06-10T18:19:22.912Z,74.50
2018-06-10T18:21:51.364Z,75.30
2018-06-10T18:24:19.776Z,74.90
2018-06-10T18:26:48.172Z,75.00
2018-06-10T18:29:16.629Z,74.90
2018-06-10T18:31:45.010Z,73.90
2018-06-10T18:34:13.411Z,73.70
2018-06-10T18:36:41.804Z,73.90
2018-06-10T18:39:10.312Z,74.00
2018-06-10T18:41:38.727Z,73.80
2018-06-10T18:44:08.098Z,74.00
2018-06-10T18:46:36.459Z,73.50
2018-06-10T18:49:04.846Z,73.30
2018-06-10T18:51:33.295Z,73.60
2018-06-10T18:54:01.738Z,73.90
2018-06-10T18:56:30.176Z,74.70
2018-06-10T18:58:58.604Z,74.40
2018-06-10T19:01:26.994Z,74.50
2018-06-10T19:03:55.377Z,74.70
2018-06-10T19:06:23.850Z,74.30
2018-06-10T19:08:52.232Z,74.40
2018-06-10T19:11:20.611Z,73.60
2018-06-10T19:13:49.634Z,73.70
2018-06-10T19:16:18.053Z,74.00
2018-06-10T19:18:46.517Z,73.70
2018-06-10T19:21:14.987Z,74.00
2018-06-10T19:23:43.380Z,74.10
2018-06-10T19:26:11.835Z,74.70
2018-06-10T19:28:40.284Z,74.80
2018-06-10T19:31:08.683Z,75.20
2018-06-10T19:33:37.068Z,75.00
2018-06-10T19:36:05.648Z,75.10
2018-06-10T19:38:34.024Z,74.90
2018-06-10T19:41:02.475Z,74.60
2018-06-10T19:43:30.923Z,74.70
2018-06-10T19:45:59.409Z,74.80
2018-06-10T19:48:27.756Z,74.60
2018-06-10T19:50:56.839Z,75.80
2018-06-10T19:53:39.851Z,74.80
2018-06-10T19:56:08.276Z,74.00
2018-06-10T19:58:36.725Z,74.10
2018-06-10T20:01:05.126Z,74.80
2018-06-10T20:03:33.735Z,74.60
2018-06-10T20:06:02.165Z,74.70
2018-06-10T20:08:30.645Z,74.80
2018-06-10T20:10:59.937Z,75.40
2018-06-10T20:13:28.336Z,75.90
2018-06-10T20:15:56.747Z,76.00
2018-06-10T20:18:25.168Z,75.90
2018-06-10T20:20:53.593Z,76.20
2018-06-10T20:23:22.039Z,76.30
2018-06-10T20:25:50.549Z,76.20
2018-06-10T20:28:25.285Z,76.00
2018-06-10T20:30:53.907Z,76.20
2018-06-10T20:33:22.413Z,76.10
2018-06-10T20:35:50.821Z,77.10
2018-06-10T20:38:19.254Z,76.50
2018-06-10T20:40:47.673Z,76.90
2018-06-10T20:43:16.081Z,76.70
2018-06-10T20:45:44.467Z,76.10
2018-06-10T20:48:12.855Z,75.60
2018-06-10T20:50:41.271Z,75.70
2018-06-10T20:53:09.648Z,75.40
2018-06-10T20:58:06.177Z,75.30
2018-06-10T21:00:34.614Z,75.00
2018-06-10T21:03:03.045Z,75.30
2018-06-10T21:05:31.448Z,75.00
2018-06-10T21:07:59.920Z,75.30
2018-06-10T21:10:28.353Z,75.50
2018-06-10T21:12:56.768Z,75.40
2018-06-10T21:15:25.194Z,75.30
2018-06-10T21:17:53.548Z,75.40
2018-06-10T21:20:22.062Z,75.00
2018-06-10T21:22:50.465Z,75.50
2018-06-10T21:25:18.974Z,75.10
2018-06-10T21:27:47.385Z,75.50
2018-06-10T21:30:15.858Z,75.20
2018-06-10T21:32:44.244Z,75.50
2018-06-10T21:35:12.650Z,75.80
2018-06-10T21:37:41.068Z,75.80
2018-06-10T21:40:09.529Z,75.80
2018-06-10T21:42:37.977Z,76.30
2018-06-10T21:45:06.437Z,76.20
2018-06-10T21:47:34.900Z,76.50
2018-06-10T21:50:03.349Z,76.00
2018-06-10T21:52:31.745Z,76.20
2018-06-10T21:57:35.760Z,76.20
2018-06-10T22:00:05.193Z,76.20
2018-06-10T22:02:33.628Z,76.20
2018-06-10T22:05:02.054Z,76.20
2018-06-10T22:07:30.524Z,75.80
2018-06-10T22:09:58.930Z,76.00
2018-06-10T22:12:27.351Z,76.20
2018-06-10T22:14:55.790Z,76.00
2018-06-10T22:17:24.231Z,76.00
2018-06-10T22:19:53.204Z,76.00
2018-06-10T22:22:21.609Z,76.40
2018-06-10T22:24:50.103Z,76.10
2018-06-10T22:27:18.992Z,75.80
2018-06-10T22:29:47.414Z,75.40
2018-06-10T22:32:15.891Z,75.40
2018-06-10T22:34:44.299Z,75.80
2018-06-10T22:37:12.705Z,75.40
2018-06-10T22:39:41.070Z,74.70
2018-06-10T22:42:09.481Z,74.50
2018-06-10T22:44:37.871Z,75.00
2018-06-10T22:47:06.284Z,74.60
2018-06-10T22:49:34.659Z,74.70
2018-06-10T22:52:03.066Z,73.90
2018-06-10T22:54:42.296Z,74.40
2018-06-10T22:57:11.534Z,74.10
2018-06-10T22:59:39.956Z,73.70
2018-06-10T23:02:09.273Z,74.40
2018-06-10T23:04:37.724Z,73.90
2018-06-10T23:07:06.182Z,73.40
2018-06-10T23:09:34.607Z,73.90
2018-06-10T23:12:09.755Z,74.20
2018-06-10T23:14:38.149Z,74.60
2018-06-10T23:19:35.249Z,74.30
2018-06-10T23:22:03.622Z,74.60
2018-06-10T23:24:32.026Z,74.00
2018-06-10T23:29:28.566Z,73.50
2018-06-10T23:31:56.951Z,73.80
2018-06-10T23:36:53.478Z,73.40
2018-06-10T23:39:21.857Z,73.60
2018-06-10T23:41:50.260Z,73.30
2018-06-10T23:44:18.668Z,73.80
2018-06-10T23:46:47.052Z,74.30
2018-06-10T23:49:15.878Z,73.70
2018-06-10T23:51:45.986Z,73.80
2018-06-10T23:54:14.412Z,74.20
2018-06-10T23:56:42.795Z,74.30
2018-06-10T23:59:11.198Z,74.10
